Time;durP1;ratioP1;P1;durP2;ratioP2;P2;SDS_P1;SDS_P2;PMS_P1;PMS_P2;Temp;Humidity;BMP_temperature;BMP_pressure;BME280_temperature;BME280_humidity;BME280_pressure;Samples;Min_cycle;Max_cycle;Signal;HPM_P1;HPM_P2
2021/11/18 00:02:33;;;;;;;49.00;27.40;;;;;;;11.54;83.61;101411.84;4993367;28;20047;-77
2021/11/18 00:05:22;;;;;;;58.03;29.15;;;;;;;11.57;84.45;101418.59;4990878;28;20416;-77
2021/11/18 00:08:09;;;;;;;59.72;30.00;;;;;;;11.60;84.67;101407.09;4996664;28;20038;-77
2021/11/18 00:10:58;;;;;;;49.45;27.65;;;;;;;11.56;84.49;101404.19;4989162;28;20042;-77
2021/11/18 00:13:50;;;;;;;58.13;30.20;;;;;;;11.41;84.61;101406.41;4990223;28;20784;-76
2021/11/18 00:16:40;;;;;;;62.38;30.25;;;;;;;11.45;85.08;101402.78;4991889;28;20042;-77
2021/11/18 00:19:30;;;;;;;47.20;27.05;;;;;;;11.43;84.38;101412.34;4992917;28;20042;-76
2021/11/18 00:22:20;;;;;;;53.03;28.27;;;;;;;11.42;85.03;101408.03;4987097;28;20050;-77
2021/11/18 00:25:07;;;;;;;53.78;27.85;;;;;;;11.43;84.26;101409.63;4985753;28;20035;-77
2021/11/18 00:27:57;;;;;;;48.10;25.95;;;;;;;11.43;83.85;101410.44;4989268;28;20042;-77
2021/11/18 00:30:45;;;;;;;50.70;27.85;;;;;;;11.48;84.52;101412.25;4992631;28;20035;-77
2021/11/18 00:33:34;;;;;;;45.10;25.33;;;;;;;11.36;83.58;101417.41;4991166;28;20042;-77
2021/11/18 00:36:29;;;;;;;49.28;25.83;;;;;;;11.36;82.81;101414.69;4987027;28;20042;-76
2021/11/18 00:39:19;;;;;;;41.30;22.58;;;;;;;11.26;82.48;101415.69;4991907;28;20038;-76
2021/11/18 00:42:06;;;;;;;42.83;25.55;;;;;;;11.11;81.92;101410.53;4996482;28;20038;-76
2021/11/18 00:44:59;;;;;;;46.17;24.52;;;;;;;11.02;83.23;101407.69;4984327;28;20046;-78
2021/11/18 00:47:51;;;;;;;42.30;23.83;;;;;;;11.08;84.23;101403.78;4986882;28;20397;-77
2021/11/18 00:50:53;;;;;;;47.17;25.15;;;;;;;11.10;82.95;101407.00;4978546;28;20051;-77
2021/11/18 00:53:48;;;;;;;46.92;24.75;;;;;;;11.06;82.39;101406.00;4969084;28;20038;-77
2021/11/18 00:56:37;;;;;;;46.10;25.83;;;;;;;11.14;83.52;101412.66;4986540;28;20050;-77
2021/11/18 00:59:29;;;;;;;47.60;24.92;;;;;;;11.04;84.49;101410.13;4977787;28;20042;-77
2021/11/18 01:02:17;;;;;;;46.03;25.50;;;;;;;10.99;82.93;101408.31;4979804;28;20054;-77
2021/11/18 01:05:04;;;;;;;41.03;23.52;;;;;;;10.94;82.58;101404.88;4965172;28;20043;-76
2021/11/18 01:08:01;;;;;;;43.10;23.65;;;;;;;10.96;82.46;101411.66;4997338;28;20038;-77
2021/11/18 01:10:53;;;;;;;42.15;23.25;;;;;;;10.91;82.39;101411.75;4982792;28;20046;-76
2021/11/18 01:13:42;;;;;;;37.38;22.98;;;;;;;10.88;83.01;101420.47;4980427;28;20057;-78
2021/11/18 01:16:31;;;;;;;39.53;22.20;;;;;;;10.84;83.30;101424.91;4972104;28;20412;-77
2021/11/18 01:19:21;;;;;;;40.55;22.25;;;;;;;10.69;83.48;101420.56;4977669;28;20042;-76
2021/11/18 01:22:08;;;;;;;46.85;24.45;;;;;;;10.83;84.44;101426.00;4990517;28;20042;-77
2021/11/18 01:24:56;;;;;;;41.35;24.65;;;;;;;10.90;83.64;101423.72;4983934;28;20042;-79
2021/11/18 01:27:47;;;;;;;42.58;23.70;;;;;;;10.79;83.42;101426.91;4977195;28;20412;-76
2021/11/18 01:30:44;;;;;;;42.38;23.60;;;;;;;10.80;84.30;101423.91;4975096;28;20046;-77
2021/11/18 01:33:34;;;;;;;41.50;23.48;;;;;;;10.85;83.39;101431.97;4979561;28;20223;-77
2021/11/18 01:36:23;;;;;;;38.13;22.30;;;;;;;10.77;82.88;101435.38;4990978;28;20059;-77
2021/11/18 01:39:20;;;;;;;42.05;21.60;;;;;;;10.74;83.35;101427.81;4972712;28;20051;-77
2021/11/18 01:42:07;;;;;;;40.50;22.48;;;;;;;10.80;83.51;101428.53;4979677;28;20046;-77
2021/11/18 01:44:56;;;;;;;36.95;21.30;;;;;;;10.79;82.24;101421.47;4978995;28;20417;-77
2021/11/18 01:47:44;;;;;;;41.72;21.25;;;;;;;10.70;81.56;101424.91;4972402;28;20042;-77
2021/11/18 01:50:37;;;;;;;37.88;21.70;;;;;;;10.70;82.02;101422.19;4976540;28;20051;-77
2021/11/18 01:53:35;;;;;;;41.08;21.90;;;;;;;10.70;81.45;101415.91;4979475;28;20042;-78
2021/11/18 01:56:31;;;;;;;38.33;20.52;;;;;;;10.70;81.35;101429.53;4976827;28;20042;-77
2021/11/18 01:59:24;;;;;;;32.13;19.98;;;;;;;10.70;81.21;101429.53;4973974;28;20042;-76
2021/11/18 02:02:30;;;;;;;30.75;19.02;;;;;;;10.68;81.00;101431.72;4970325;28;20046;-77
2021/11/18 02:05:38;;;;;;;36.90;19.92;;;;;;;10.66;80.57;101432.03;4986634;28;20505;-77
2021/11/18 02:08:27;;;;;;;37.33;21.33;;;;;;;10.62;82.20;101432.91;4970413;28;20046;-77
2021/11/18 02:11:39;;;;;;;36.88;19.90;;;;;;;10.67;81.65;101430.91;4964021;28;20038;-78
2021/11/18 02:14:27;;;;;;;33.55;16.98;;;;;;;10.67;81.24;101421.94;4979596;28;20042;-78
2021/11/18 02:17:15;;;;;;;38.00;21.02;;;;;;;10.66;81.07;101421.16;4975609;28;20064;-77
2021/11/18 02:20:04;;;;;;;36.70;20.33;;;;;;;10.66;81.06;101423.06;4964142;28;20046;-77
2021/11/18 02:22:52;;;;;;;36.08;20.05;;;;;;;10.64;80.39;101425.28;4981462;28;20050;-77
2021/11/18 02:25:38;;;;;;;34.28;18.63;;;;;;;10.61;80.11;101415.00;4972557;28;20417;-77
2021/11/18 02:28:32;;;;;;;33.75;19.05;;;;;;;10.58;81.29;101415.56;4968582;28;20038;-77
2021/11/18 02:31:21;;;;;;;31.70;18.42;;;;;;;10.58;81.01;101423.72;4972483;28;20042;-77
2021/11/18 02:34:12;;;;;;;27.35;17.23;;;;;;;10.54;80.74;101420.81;4981270;28;20042;-77
2021/11/18 02:36:58;;;;;;;30.40;16.48;;;;;;;10.34;81.05;101428.50;4977869;28;20042;-77
2021/11/18 02:39:44;;;;;;;23.75;14.50;;;;;;;10.38;82.05;101426.78;4972189;28;20042;-76
2021/11/18 02:42:33;;;;;;;22.40;14.27;;;;;;;10.41;80.56;101426.22;4969398;28;20043;-77
2021/11/18 02:45:23;;;;;;;28.92;16.70;;;;;;;10.41;80.89;101427.03;4985685;28;20034;-77
2021/11/18 02:48:09;;;;;;;34.00;17.42;;;;;;;10.33;82.33;101427.69;4975591;28;20042;-77
2021/11/18 02:51:00;;;;;;;24.88;16.55;;;;;;;10.25;82.10;101426.44;4979649;28;20030;-75
2021/11/18 02:53:48;;;;;;;30.38;17.73;;;;;;;10.22;82.26;101423.50;4962706;28;20046;-77
2021/11/18 02:56:35;;;;;;;25.83;17.05;;;;;;;10.29;82.28;101424.75;4975716;28;20046;-77
2021/11/18 02:59:22;;;;;;;24.02;15.13;;;;;;;10.30;80.83;101420.13;4979984;28;20050;-77
2021/11/18 03:02:14;;;;;;;29.65;15.70;;;;;;;10.29;79.63;101424.75;4974594;28;20035;-77
2021/11/18 03:05:01;;;;;;;24.35;15.02;;;;;;;10.26;79.13;101425.31;4966464;28;20039;-78
2021/11/18 03:07:49;;;;;;;27.08;17.13;;;;;;;10.31;80.12;101427.16;4976712;28;20035;-78
2021/11/18 03:10:22;;;;;;;25.52;14.77;;;;;;;10.29;79.78;101432.91;5005201;23;20043;-66
2021/11/18 03:13:08;;;;;;;19.73;13.60;;;;;;;10.25;78.87;101433.78;4980449;28;20499;-65
2021/11/18 03:15:53;;;;;;;13.52;9.50;;;;;;;10.18;77.44;101433.34;4979734;28;20399;-65
2021/11/18 03:18:38;;;;;;;21.52;13.43;;;;;;;10.14;77.64;101437.72;4975156;28;20045;-65
2021/11/18 03:21:26;;;;;;;20.92;12.57;;;;;;;10.15;77.63;101433.91;4980855;28;20058;-65
2021/11/18 03:24:14;;;;;;;28.00;13.90;;;;;;;10.15;77.08;101439.34;4979796;28;20050;-65
2021/11/18 03:26:58;;;;;;;14.70;9.95;;;;;;;10.00;77.75;101439.56;4992202;28;20034;-65
2021/11/18 03:29:44;;;;;;;21.67;13.98;;;;;;;9.94;80.03;101433.41;4981325;28;20042;-66
2021/11/18 03:32:31;;;;;;;20.10;13.75;;;;;;;10.05;80.42;101450.38;4980421;28;20489;-66
2021/11/18 03:35:18;;;;;;;18.38;12.02;;;;;;;10.04;79.68;101444.13;4974547;28;20035;-66
2021/11/18 03:38:07;;;;;;;19.08;11.98;;;;;;;10.00;78.57;101442.28;4973695;28;20038;-65
2021/11/18 03:40:52;;;;;;;18.50;11.90;;;;;;;9.98;78.75;101442.56;4989641;28;20046;-65
2021/11/18 03:43:42;;;;;;;20.35;11.65;;;;;;;10.13;80.13;101445.06;4977904;28;20526;-65
2021/11/18 03:46:33;;;;;;;19.27;13.10;;;;;;;10.09;78.76;101440.53;4979745;28;20042;-65
2021/11/18 03:49:19;;;;;;;17.90;12.75;;;;;;;10.06;78.08;101446.53;4979258;28;20407;-65
2021/11/18 03:52:10;;;;;;;22.33;12.63;;;;;;;9.99;76.83;101444.19;4967382;28;20050;-66
2021/11/18 03:54:55;;;;;;;20.17;12.60;;;;;;;9.92;76.82;101451.09;4980399;28;20038;-66
2021/11/18 03:57:41;;;;;;;18.88;12.25;;;;;;;9.92;76.72;101445.66;4991052;28;20049;-67
2021/11/18 04:00:31;;;;;;;18.33;12.10;;;;;;;9.92;77.11;101451.09;4977564;28;20419;-66
2021/11/18 04:03:15;;;;;;;18.50;11.25;;;;;;;9.89;77.65;101452.50;4968390;28;20034;-65
2021/11/18 04:06:02;;;;;;;;;;;;;;;9.93;77.37;101453.50;4979383;28;20049;-65
2021/11/18 04:08:50;;;;;;;17.02;11.73;;;;;;;9.85;76.87;101446.03;4990437;28;20298;-65
2021/11/18 04:11:37;;;;;;;21.08;10.35;;;;;;;9.72;77.76;101444.81;4984483;28;20046;-66
2021/11/18 04:14:25;;;;;;;15.30;10.63;;;;;;;9.66;77.72;101450.59;4975394;28;20047;-65
2021/11/18 04:17:11;;;;;;;15.43;10.88;;;;;;;9.64;77.85;101456.34;4979007;28;20411;-65
2021/11/18 04:19:58;;;;;;;18.00;10.95;;;;;;;9.54;77.56;101455.66;4980024;28;20057;-65
2021/11/18 04:22:46;;;;;;;16.17;11.60;;;;;;;9.60;78.71;101457.22;4996968;28;20204;-65
2021/11/18 04:25:34;;;;;;;23.65;12.23;;;;;;;9.67;78.27;101463.91;4971494;28;20411;-66
2021/11/18 04:28:20;;;;;;;16.98;11.32;;;;;;;9.62;77.82;101468.59;4983029;28;20030;-65
2021/11/18 04:31:17;;;;;;;19.13;12.18;;;;;;;9.63;77.96;101467.50;4992863;28;20042;-65
2021/11/18 04:34:03;;;;;;;21.08;12.23;;;;;;;9.64;78.31;101469.09;4994080;28;20046;-65
2021/11/18 04:36:47;;;;;;;18.88;11.82;;;;;;;9.68;79.25;101470.13;4992697;28;20092;-65
2021/11/18 04:39:34;;;;;;;14.13;9.00;;;;;;;9.69;79.18;101475.28;4979147;28;20492;-66
2021/11/18 04:42:20;;;;;;;17.67;10.73;;;;;;;9.63;78.91;101486.50;4994070;28;20518;-66
2021/11/18 04:45:20;;;;;;;19.38;10.43;;;;;;;9.60;78.54;101495.22;4981081;28;20039;-66
2021/11/18 04:48:05;;;;;;;17.52;10.63;;;;;;;9.58;78.65;101490.09;4983102;28;20054;-67
2021/11/18 04:50:51;;;;;;;16.38;9.07;;;;;;;9.57;78.49;101487.66;4984474;28;20078;-66
2021/11/18 04:53:37;;;;;;;14.85;9.02;;;;;;;9.58;77.95;101484.66;4996135;28;20049;-66
2021/11/18 04:56:24;;;;;;;11.48;7.38;;;;;;;9.48;78.75;101479.34;4970550;28;20057;-66
2021/11/18 04:59:10;;;;;;;14.10;7.97;;;;;;;9.30;79.72;101482.78;4979123;28;20053;-66
2021/11/18 05:01:56;;;;;;;20.50;7.18;;;;;;;9.19;79.32;101482.09;4982440;28;20041;-66
2021/11/18 05:04:41;;;;;;;8.23;6.47;;;;;;;9.32;80.28;101486.03;4981065;28;20136;-65
2021/11/18 05:07:26;;;;;;;12.77;8.05;;;;;;;9.31;79.54;101495.25;4978572;28;20045;-65
2021/11/18 05:10:12;;;;;;;7.28;6.18;;;;;;;9.11;79.49;101503.59;4978233;28;20049;-65
2021/11/18 05:12:58;;;;;;;15.98;7.10;;;;;;;8.99;79.56;101506.69;4977601;28;20048;-65
2021/11/18 05:15:50;;;;;;;35.70;8.50;;;;;;;8.81;80.32;101505.50;4982436;28;20073;-65
2021/11/18 05:18:36;;;;;;;13.57;9.30;;;;;;;8.71;81.03;101511.00;4979084;28;20411;-65
2021/11/18 05:21:29;;;;;;;17.42;9.10;;;;;;;8.66;81.57;101512.94;4980215;28;20053;-65
2021/11/18 05:24:15;;;;;;;11.32;7.82;;;;;;;8.87;80.13;101520.63;4981777;28;20073;-65
2021/11/18 05:27:02;;;;;;;13.95;7.47;;;;;;;8.99;79.54;101528.38;4978032;28;20415;-65
2021/11/18 05:29:47;;;;;;;12.43;9.10;;;;;;;8.92;78.70;101527.91;4979034;28;20057;-65
2021/11/18 05:32:32;;;;;;;;;;;;;;;9.08;79.62;101534.84;4978364;28;20483;-66
2021/11/18 05:35:22;;;;;;;12.68;8.90;;;;;;;8.95;78.18;101538.19;4978533;28;20291;-67
2021/11/18 05:38:07;;;;;;;18.10;9.07;;;;;;;8.91;78.80;101539.84;4979087;28;20518;-65
2021/11/18 05:40:54;;;;;;;16.17;10.18;;;;;;;8.98;78.48;101540.34;4991344;28;20049;-66
2021/11/18 05:43:43;;;;;;;13.48;9.70;;;;;;;9.10;78.12;101537.25;4981353;28;20042;-65
2021/11/18 05:46:29;;;;;;;13.77;9.00;;;;;;;9.11;77.33;101550.53;4968204;28;20420;-65
2021/11/18 05:49:14;;;;;;;20.33;11.00;;;;;;;9.13;77.93;101542.94;4992812;28;20447;-65
2021/11/18 05:52:00;;;;;;;19.83;11.43;;;;;;;9.25;80.07;101546.06;4975269;28;20046;-65
2021/11/18 05:54:45;;;;;;;14.98;10.27;;;;;;;9.26;79.18;101542.25;4979638;28;20050;-65
2021/11/18 05:57:30;;;;;;;9.30;6.18;;;;;;;9.19;77.12;101547.22;4978244;28;20057;-66
2021/11/18 06:00:27;;;;;;;17.17;8.18;;;;;;;9.17;76.34;101548.59;4981402;28;20049;-66
2021/11/18 06:03:14;;;;;;;12.88;8.73;;;;;;;9.17;77.89;101554.03;4996835;28;20045;-65
2021/11/18 06:06:02;;;;;;;18.67;10.90;;;;;;;9.32;80.53;101568.25;4982066;28;20423;-65
2021/11/18 06:08:46;;;;;;;17.10;10.15;;;;;;;9.39;81.46;101574.19;4978999;28;20038;-65
2021/11/18 06:11:36;;;;;;;18.73;9.60;;;;;;;9.34;80.84;101576.13;4977362;28;20053;-66
2021/11/18 06:14:23;;;;;;;13.32;8.65;;;;;;;9.22;78.78;101583.81;4982452;28;20113;-65
2021/11/18 06:17:10;;;;;;;11.82;8.50;;;;;;;9.29;79.59;101579.69;4974567;28;20057;-65
2021/11/18 06:19:56;;;;;;;14.23;8.90;;;;;;;9.32;79.61;101589.97;4978470;28;20046;-64
2021/11/18 06:22:43;;;;;;;17.20;8.80;;;;;;;9.30;78.46;101588.63;4991292;28;20053;-65
2021/11/18 06:25:32;;;;;;;16.27;9.65;;;;;;;9.32;79.37;101594.59;4977011;28;20522;-65
2021/11/18 06:28:19;;;;;;;11.77;8.07;;;;;;;9.36;79.43;101595.63;4972372;28;20103;-66
2021/11/18 06:31:09;;;;;;;11.98;8.32;;;;;;;9.22;76.84;101592.78;4974136;28;20065;-65
2021/11/18 06:33:58;;;;;;;15.07;9.43;;;;;;;9.17;76.07;101603.66;4976529;28;20058;-67
2021/11/18 06:36:45;;;;;;;11.43;7.88;;;;;;;9.09;75.75;101611.63;4972157;28;20510;-64
2021/11/18 06:39:32;;;;;;;15.98;8.50;;;;;;;9.07;76.09;101614.59;4980015;28;20045;-66
2021/11/18 06:42:16;;;;;;;21.45;11.80;;;;;;;9.07;77.79;101617.31;4992705;28;20369;-64
2021/11/18 06:45:19;;;;;;;20.42;10.20;;;;;;;9.19;78.31;101620.50;4991025;28;20050;-65
2021/11/18 06:48:05;;;;;;;21.52;9.85;;;;;;;9.13;78.11;101627.03;4981597;28;20042;-65
2021/11/18 06:50:51;;;;;;;28.10;10.32;;;;;;;9.08;79.35;101637.13;4979687;28;20050;-64
2021/11/18 06:53:39;;;;;;;30.05;15.02;;;;;;;9.11;79.43;101629.22;4980238;28;20046;-65
2021/11/18 06:56:25;;;;;;;28.08;15.98;;;;;;;9.12;79.57;101632.75;4981042;28;20042;-66
2021/11/18 06:59:11;;;;;;;19.83;10.98;;;;;;;9.21;80.56;101631.03;4991984;28;20049;-66
2021/11/18 07:01:58;;;;;;;25.42;11.32;;;;;;;9.28;80.79;101631.53;5011567;28;20403;-66
2021/11/18 07:04:45;;;;;;;20.30;9.77;;;;;;;9.26;81.20;101639.16;4989295;28;20042;-66
2021/11/18 07:07:33;;;;;;;21.10;10.07;;;;;;;9.32;79.99;101632.59;4968893;28;20049;-66
2021/11/18 07:10:20;;;;;;;19.90;9.70;;;;;;;9.38;78.86;101631.47;4967760;28;20412;-65
2021/11/18 07:13:22;;;;;;;21.00;10.20;;;;;;;9.42;79.57;101643.34;4972659;28;20046;-66
2021/11/18 07:16:12;;;;;;;24.85;10.05;;;;;;;9.42;80.42;101644.16;4976249;28;20765;-67
2021/11/18 07:18:57;;;;;;;29.13;9.63;;;;;;;9.52;80.52;101666.91;4982349;28;20054;-66
2021/11/18 07:21:42;;;;;;;22.80;9.82;;;;;;;9.49;79.91;101670.19;4980478;28;20053;-66
2021/11/18 07:24:28;;;;;;;15.98;8.13;;;;;;;9.34;80.02;101663.78;4979033;28;20065;-66
2021/11/18 07:27:12;;;;;;;28.58;9.85;;;;;;;9.35;80.91;101676.25;4977806;28;20061;-65
2021/11/18 07:29:57;;;;;;;28.00;9.95;;;;;;;9.42;81.71;101687.59;4978547;28;20049;-65
2021/11/18 07:32:44;;;;;;;26.17;12.63;;;;;;;9.44;81.90;101701.72;4978284;28;20050;-65
2021/11/18 07:35:36;;;;;;;30.55;12.60;;;;;;;9.48;82.77;101701.13;4981421;28;20467;-65
2021/11/18 07:38:26;;;;;;;18.23;11.68;;;;;;;9.53;82.76;101698.38;4980966;28;20057;-66
2021/11/18 07:41:11;;;;;;;20.33;11.68;;;;;;;9.67;83.53;101696.63;4982113;28;20043;-65
2021/11/18 07:44:01;;;;;;;30.73;14.95;;;;;;;9.79;83.93;101686.22;4977884;28;20518;-65
2021/11/18 07:47:06;;;;;;;31.27;14.82;;;;;;;9.81;83.36;101689.44;4993456;28;20477;-65
2021/11/18 07:49:53;;;;;;;22.05;10.98;;;;;;;9.77;83.21;101688.41;4978574;28;20427;-64
2021/11/18 07:52:39;;;;;;;23.73;13.55;;;;;;;9.89;83.31;101696.97;4989938;28;20038;-65
2021/11/18 07:55:24;;;;;;;23.50;13.15;;;;;;;10.02;84.15;101696.28;4970179;28;20526;-65
2021/11/18 07:58:11;;;;;;;24.40;12.80;;;;;;;10.03;84.43;101703.34;4993129;28;20046;-65
2021/11/18 08:00:57;;;;;;;25.13;13.80;;;;;;;10.06;84.66;101702.78;4983771;28;20050;-65
2021/11/18 08:03:46;;;;;;;24.55;14.68;;;;;;;10.17;84.98;101700.78;4981887;28;20039;-67
2021/11/18 08:06:35;;;;;;;24.35;13.93;;;;;;;10.16;85.29;101705.41;4980396;28;20038;-65
2021/11/18 08:09:24;;;;;;;39.00;18.42;;;;;;;10.19;84.68;101712.19;4973235;28;20042;-65
2021/11/18 08:12:09;;;;;;;19.42;11.05;;;;;;;10.17;84.48;101714.38;4981749;28;20054;-66
2021/11/18 08:14:54;;;;;;;25.23;13.48;;;;;;;10.19;84.35;101710.28;4994429;28;20042;-67
2021/11/18 08:17:39;;;;;;;24.92;11.38;;;;;;;10.27;83.92;101704.22;4975319;28;20046;-67
2021/11/18 08:20:27;;;;;;;32.13;13.77;;;;;;;10.33;84.66;101713.13;4988072;28;20042;-65
2021/11/18 08:23:12;;;;;;;28.25;13.93;;;;;;;10.40;84.37;101713.59;4979853;28;20038;-66
2021/11/18 08:25:59;;;;;;;20.25;9.57;;;;;;;10.53;84.45;101721.06;4981560;28;20042;-65
2021/11/18 08:28:47;;;;;;;23.42;12.90;;;;;;;10.52;83.44;101727.59;4974210;28;20045;-64
2021/11/18 08:31:33;;;;;;;36.92;14.80;;;;;;;10.68;83.80;101741.81;4974726;28;20043;-64
2021/11/18 08:34:38;;;;;;;29.50;13.27;;;;;;;10.98;83.71;101752.31;4972860;28;20050;-64
2021/11/18 08:37:28;;;;;;;33.95;15.50;;;;;;;10.94;83.40;101759.44;4989859;28;20066;-64
2021/11/18 08:40:17;;;;;;;21.50;11.68;;;;;;;11.03;84.07;101760.41;4985097;28;20043;-65
2021/11/18 08:43:04;;;;;;;24.35;14.45;;;;;;;11.17;82.53;101768.69;4982894;28;20415;-70
2021/11/18 08:45:50;;;;;;;41.53;18.30;;;;;;;11.18;82.14;101769.47;4980924;28;20050;-65
2021/11/18 08:48:37;;;;;;;29.23;16.80;;;;;;;11.34;81.73;101771.69;4973375;28;20050;-65
2021/11/18 08:51:23;;;;;;;33.50;17.00;;;;;;;11.49;81.61;101773.38;4986152;28;20053;-65
2021/11/18 08:54:15;;;;;;;30.00;18.38;;;;;;;11.70;80.67;101771.97;4977327;28;20039;-66
2021/11/18 08:57:03;;;;;;;35.28;16.85;;;;;;;11.91;79.41;101776.03;4979238;28;20038;-66
2021/11/18 09:00:08;;;;;;;36.72;17.20;;;;;;;12.15;78.06;101780.50;4971976;28;20504;-66
2021/11/18 09:02:57;;;;;;;40.88;18.42;;;;;;;12.23;78.03;101777.13;4971071;28;20042;-66
2021/11/18 09:05:42;;;;;;;32.65;18.88;;;;;;;12.44;77.88;101783.81;4969757;28;20513;-65
2021/11/18 09:08:28;;;;;;;30.55;19.20;;;;;;;12.25;78.65;101774.88;4981164;28;20046;-62
2021/11/18 09:11:22;;;;;;;75.50;24.70;;;;;;;12.50;78.57;101777.13;4984253;23;20039;-67
2021/11/18 09:14:11;;;;;;;80.85;28.55;;;;;;;12.24;78.93;101773.28;4976980;28;20047;-66
2021/11/18 09:16:56;;;;;;;65.82;25.35;;;;;;;12.10;79.70;101777.88;4969002;28;20042;-65
2021/11/18 09:19:49;;;;;;;58.38;25.85;;;;;;;11.97;80.16;101783.00;4967740;28;20039;-66
2021/11/18 09:22:34;;;;;;;42.15;17.70;;;;;;;11.88;80.85;101792.16;4968736;28;20047;-66
2021/11/18 09:25:19;;;;;;;48.45;19.13;;;;;;;11.82;81.11;101801.53;4970392;28;20492;-65
2021/11/18 09:28:05;;;;;;;;;;;;;;;11.77;81.55;101807.88;4954603;29;20058;-66
2021/11/18 09:30:59;;;;;;;56.60;25.60;;;;;;;11.73;81.94;101806.84;4958928;28;19914;-66
2021/11/18 09:33:45;;;;;;;68.13;26.90;;;;;;;11.70;82.16;101803.84;4956791;28;20496;-66
2021/11/18 09:36:34;;;;;;;58.92;26.10;;;;;;;11.65;82.53;101810.19;4954993;28;20047;-66
2021/11/18 09:39:21;;;;;;;44.10;23.38;;;;;;;11.65;82.56;101809.38;4958761;28;20043;-66
2021/11/18 09:42:10;;;;;;;40.15;21.65;;;;;;;11.65;82.69;101806.66;4970213;28;20493;-65
2021/11/18 09:45:13;;;;;;;52.25;27.58;;;;;;;11.69;82.80;101811.22;4954208;28;20043;-65
2021/11/18 09:48:26;;;;;;;65.10;29.52;;;;;;;11.71;82.88;101814.47;4957756;28;20051;-66
2021/11/18 09:51:36;;;;;;;62.08;30.50;;;;;;;11.70;82.78;101815.56;4954534;28;20417;-66
2021/11/18 09:54:47;;;;;;;63.17;29.27;;;;;;;11.69;82.84;101822.09;4957166;28;20043;-66
2021/11/18 09:58:02;;;;;;;69.82;31.75;;;;;;;11.72;82.94;101821.53;4953486;28;20043;-66
2021/11/18 10:01:15;;;;;;;50.70;27.35;;;;;;;11.74;82.51;101813.88;4956601;28;20051;-66
2021/11/18 10:04:12;;;;;;;51.78;25.55;;;;;;;11.77;82.63;101815.22;4954436;29;20047;-65
2021/11/18 10:07:01;;;;;;;55.08;25.70;;;;;;;11.78;82.70;101817.66;4955300;28;20043;-66
2021/11/18 10:09:49;;;;;;;52.35;28.88;;;;;;;11.79;82.91;101819.25;4954641;28;20043;-66
2021/11/18 10:12:39;;;;;;;58.83;31.30;;;;;;;11.82;82.81;101815.97;4958541;28;20333;-65
2021/11/18 10:15:33;;;;;;;45.75;23.95;;;;;;;11.85;82.99;101817.28;4955890;28;20039;-65
2021/11/18 10:18:28;;;;;;;61.17;29.48;;;;;;;11.86;82.95;101814.25;4954602;28;20039;-65
2021/11/18 10:21:21;;;;;;;37.55;21.42;;;;;;;11.88;82.85;101816.69;4958277;28;20043;-66
2021/11/18 10:24:24;;;;;;;49.65;27.52;;;;;;;11.91;82.71;101825.09;4956129;28;20043;-66
2021/11/18 10:27:14;;;;;;;55.05;30.33;;;;;;;11.93;82.69;101819.34;4955596;28;20043;-65
2021/11/18 10:30:20;;;;;;;47.10;25.98;;;;;;;11.95;82.91;101817.91;4957522;28;20043;-66
2021/11/18 10:33:08;;;;;;;;;;;;;;;11.98;83.04;101814.63;4954636;28;20424;-66
2021/11/18 10:36:33;;;;;;;60.88;33.65;;;;;;;12.04;83.03;101817.25;4963608;28;19915;-65
2021/11/18 10:39:41;;;;;;;45.05;23.00;;;;;;;12.03;82.73;101805.53;4961831;28;20039;-65
2021/11/18 10:42:47;;;;;;;54.97;26.27;;;;;;;12.07;82.77;101814.75;4969034;28;20058;-66
2021/11/18 10:45:37;;;;;;;45.88;25.23;;;;;;;12.07;82.27;101811.19;4972416;28;20645;-65
2021/11/18 10:48:29;;;;;;;39.75;22.52;;;;;;;12.07;82.37;101817.47;4971326;28;20039;-66
2021/11/18 10:51:33;;;;;;;49.22;25.33;;;;;;;12.14;81.93;101814.38;4973970;28;20047;-66
2021/11/18 10:54:19;;;;;;;54.65;28.85;;;;;;;12.13;81.95;101812.75;4970193;28;20035;-66
2021/11/18 10:57:05;;;;;;;49.55;28.08;;;;;;;12.15;81.93;101824.13;4973149;28;20031;-66
2021/11/18 10:59:53;;;;;;;47.03;28.00;;;;;;;12.17;81.67;101813.75;4973309;28;20047;-66
2021/11/18 11:02:38;;;;;;;47.65;28.15;;;;;;;12.16;81.67;101818.41;4976634;28;20407;-66
2021/11/18 11:05:43;;;;;;;34.50;18.08;;;;;;;12.20;80.77;101818.59;4974413;28;20043;-65
2021/11/18 11:08:32;;;;;;;59.15;30.95;;;;;;;12.21;81.44;101815.59;4967011;28;20043;-65
2021/11/18 11:11:32;;;;;;;53.45;27.63;;;;;;;12.24;81.25;101816.91;4970086;28;20043;-65
2021/11/18 11:14:40;;;;;;;57.40;30.67;;;;;;;12.24;81.11;101809.53;4973059;28;20042;-66
2021/11/18 11:17:43;;;;;;;64.70;33.83;;;;;;;12.27;81.07;101799.94;4969431;28;20046;-66
2021/11/18 11:20:41;;;;;;;51.20;29.33;;;;;;;12.28;80.78;101790.66;4971617;28;20047;-66
2021/11/18 11:23:44;;;;;;;44.60;25.92;;;;;;;12.29;80.69;101790.34;4974728;28;20039;-66
2021/11/18 11:27:06;;;;;;;36.55;21.25;;;;;;;12.33;80.23;101798.75;4975990;28;20068;-66
2021/11/18 11:29:54;;;;;;;45.13;24.05;;;;;;;12.35;80.37;101799.25;4979449;28;20412;-65
2021/11/18 11:32:47;;;;;;;59.65;29.90;;;;;;;12.38;80.89;101804.13;4969916;28;20046;-66
2021/11/18 11:35:59;;;;;;;41.05;23.70;;;;;;;12.42;80.52;101802.41;4962600;28;20517;-66
2021/11/18 11:38:43;;;;;;;39.97;22.50;;;;;;;12.42;80.47;101805.94;4969811;28;20047;-66
2021/11/18 11:41:49;;;;;;;28.27;16.33;;;;;;;12.46;80.09;101803.41;4968208;28;20050;-66
2021/11/18 11:44:52;;;;;;;31.40;18.35;;;;;;;12.49;80.09;101802.81;4972959;28;20039;-66
2021/11/18 11:47:49;;;;;;;37.20;23.05;;;;;;;12.54;79.59;101804.66;4970873;28;20042;-66
2021/11/18 11:50:52;;;;;;;37.53;20.80;;;;;;;12.58;79.43;101802.94;4979556;28;20035;-66
2021/11/18 11:53:54;;;;;;;38.90;22.63;;;;;;;12.56;79.65;101796.94;4976933;28;20042;-66
2021/11/18 11:56:44;;;;;;;37.40;21.38;;;;;;;12.58;79.50;101798.28;4976963;28;20039;-66
2021/11/18 11:59:41;;;;;;;41.00;22.77;;;;;;;12.62;79.30;101796.56;4970921;28;20047;-66
2021/11/18 12:02:39;;;;;;;40.90;23.05;;;;;;;12.64;79.24;101794.34;4970663;28;20416;-66
2021/11/18 12:05:55;;;;;;;40.70;23.48;;;;;;;12.66;79.12;101797.56;4977265;28;20051;-65
2021/11/18 12:08:47;;;;;;;36.10;22.75;;;;;;;12.70;78.99;101800.50;4964185;28;20043;-66
2021/11/18 12:11:49;;;;;;;40.67;22.13;;;;;;;12.77;78.74;101800.91;4968108;28;20046;-66
2021/11/18 12:14:41;;;;;;;39.95;23.27;;;;;;;12.81;78.33;101800.00;4968461;28;20038;-66
2021/11/18 12:17:32;;;;;;;42.20;22.65;;;;;;;12.83;78.30;101802.44;4961977;28;20051;-67
2021/11/18 12:20:30;;;;;;;38.67;24.63;;;;;;;12.83;78.42;101800.50;4967656;28;20050;-65
2021/11/18 12:23:18;;;;;;;55.88;28.13;;;;;;;12.81;78.67;101794.53;4970681;28;20039;-66
2021/11/18 12:26:17;;;;;;;50.75;28.27;;;;;;;12.88;78.26;101801.53;4973925;28;20046;-65
2021/11/18 12:29:10;;;;;;;54.17;30.95;;;;;;;12.86;78.63;101799.91;4969283;28;20039;-66
2021/11/18 12:32:15;;;;;;;63.53;33.25;;;;;;;12.89;79.17;101792.22;4970250;28;20496;-66
2021/11/18 12:35:13;;;;;;;67.70;35.55;;;;;;;12.91;79.29;101784.50;4971326;28;20408;-66
2021/11/18 12:38:33;;;;;;;71.40;40.28;;;;;;;12.94;79.82;101786.66;4975652;28;20035;-66
2021/11/18 12:41:34;;;;;;;69.05;38.58;;;;;;;12.96;80.29;101784.41;4968225;28;20051;-66
2021/11/18 12:45:11;;;;;;;52.70;29.92;;;;;;;13.01;79.15;101787.84;4967145;28;20042;-66
2021/11/18 12:48:11;;;;;;;48.58;28.02;;;;;;;13.00;79.68;101782.72;4958936;28;20050;-66
2021/11/18 12:51:02;;;;;;;53.28;28.90;;;;;;;13.06;79.21;101781.47;4979931;28;20035;-66
2021/11/18 12:54:25;;;;;;;47.90;27.85;;;;;;;13.09;79.69;101789.06;4969128;28;20047;-66
2021/11/18 12:57:13;;;;;;;57.90;29.83;;;;;;;13.14;78.77;101786.25;4967011;28;20038;-66
2021/11/18 13:00:08;;;;;;;54.00;31.63;;;;;;;13.17;78.52;101785.63;4971770;28;20047;-66
2021/11/18 13:03:01;;;;;;;57.35;30.75;;;;;;;13.23;78.24;101789.88;4972476;28;20504;-66
2021/11/18 13:05:51;;;;;;;52.20;31.35;;;;;;;13.23;78.28;101790.69;4976752;28;20051;-66